createdAt,value
2017-08-10T00:00:02.739Z,934.51
2017-08-10T00:00:31.687Z,934.52
2017-08-10T00:01:00.405Z,934.53
2017-08-10T00:01:28.567Z,934.51
2017-08-10T00:01:57.338Z,934.57
2017-08-10T00:02:50.043Z,934.59
2017-08-10T00:03:19.342Z,934.59
2017-08-10T00:03:47.397Z,934.59
2017-08-10T00:04:15.460Z,934.61
2017-08-10T00:04:43.429Z,934.63
2017-08-10T00:05:12.629Z,934.61
2017-08-10T00:05:40.789Z,934.63
2017-08-10T00:06:08.872Z,934.61
2017-08-10T00:06:37.124Z,934.62
2017-08-10T00:07:05.207Z,934.62
2017-08-10T00:07:33.463Z,934.63
2017-08-10T00:08:01.617Z,934.64
2017-08-10T00:08:29.730Z,934.65
2017-08-10T00:08:58.354Z,934.69
2017-08-10T00:09:27.193Z,934.62
2017-08-10T00:09:55.377Z,934.62
2017-08-10T00:10:23.552Z,934.61
2017-08-10T00:10:51.753Z,934.64
2017-08-10T00:11:19.918Z,934.63
2017-08-10T00:11:48.120Z,934.64
2017-08-10T00:12:16.193Z,934.65
2017-08-10T00:12:44.380Z,934.66
2017-08-10T00:13:12.661Z,934.67
2017-08-10T00:13:41.366Z,934.67
2017-08-10T00:14:09.460Z,934.69
2017-08-10T00:14:37.540Z,934.72
2017-08-10T00:15:05.695Z,934.74
2017-08-10T00:15:33.768Z,934.73
2017-08-10T00:16:01.736Z,934.76
2017-08-10T00:16:30.414Z,934.73
2017-08-10T00:16:58.401Z,934.75
2017-08-10T00:17:26.583Z,934.76
2017-08-10T00:17:54.585Z,934.81
2017-08-10T00:18:23.089Z,934.8
2017-08-10T00:18:51.150Z,934.78
2017-08-10T00:19:19.234Z,934.81
2017-08-10T00:19:47.407Z,934.81
2017-08-10T00:20:15.466Z,934.82
2017-08-10T00:20:43.620Z,934.84
2017-08-10T00:21:11.703Z,934.85
2017-08-10T00:21:40.301Z,934.82
2017-08-10T00:22:08.289Z,934.81
2017-08-10T00:22:36.392Z,934.78
2017-08-10T00:23:04.483Z,934.81
2017-08-10T00:23:32.654Z,934.83
2017-08-10T00:24:00.837Z,934.88
2017-08-10T00:24:28.909Z,934.84
2017-08-10T00:24:57.445Z,934.83
2017-08-10T00:25:25.608Z,934.8
2017-08-10T00:25:53.776Z,934.78
2017-08-10T00:26:21.840Z,934.82
2017-08-10T00:26:50.002Z,934.85
2017-08-10T00:27:18.159Z,934.86
2017-08-10T00:27:46.364Z,934.89
2017-08-10T00:28:14.884Z,934.85
2017-08-10T00:28:43.481Z,934.87
2017-08-10T00:29:11.680Z,934.82
2017-08-10T00:29:39.843Z,934.83
2017-08-10T00:30:08.008Z,934.89
2017-08-10T00:30:36.150Z,934.85
2017-08-10T00:31:47.444Z,934.87
2017-08-10T00:32:15.736Z,934.9
2017-08-10T00:32:44.576Z,934.92
2017-08-10T00:33:27.387Z,934.87
2017-08-10T00:33:55.693Z,934.93
2017-08-10T00:34:24.145Z,934.92
2017-08-10T00:34:52.370Z,934.91
2017-08-10T00:35:20.515Z,934.91
2017-08-10T00:35:48.627Z,934.89
2017-08-10T00:36:16.703Z,934.92
2017-08-10T00:36:44.774Z,934.91
2017-08-10T00:37:12.933Z,934.9
2017-08-10T00:37:41.085Z,934.92
2017-08-10T00:38:09.725Z,934.93
2017-08-10T00:38:37.852Z,934.96
2017-08-10T00:39:06.347Z,934.95
2017-08-10T00:39:34.957Z,934.99
2017-08-10T00:40:03.138Z,934.96
2017-08-10T00:40:31.125Z,934.99
2017-08-10T00:40:59.181Z,935.05
2017-08-10T00:41:27.324Z,935.02
2017-08-10T00:41:55.631Z,935
2017-08-10T00:42:23.817Z,934.98
2017-08-10T00:42:51.972Z,934.99
2017-08-10T00:43:20.590Z,935.03
2017-08-10T00:43:48.743Z,935
2017-08-10T00:44:16.831Z,935.04
2017-08-10T00:44:44.931Z,935.07
2017-08-10T00:45:13.640Z,935.03
2017-08-10T00:45:41.708Z,935
2017-08-10T00:46:10.374Z,935.07
2017-08-10T00:46:39.238Z,935.07
2017-08-10T00:47:07.254Z,935.08
2017-08-10T00:47:35.335Z,935.08
2017-08-10T00:48:03.508Z,935.08
2017-08-10T00:48:32.137Z,935.06
2017-08-10T00:49:00.213Z,935.04
2017-08-10T00:49:28.836Z,935.07
2017-08-10T00:49:56.815Z,935.06
2017-08-10T00:50:24.969Z,935.05
2017-08-10T00:50:53.121Z,935.02
2017-08-10T00:51:21.223Z,935.07
2017-08-10T00:51:49.389Z,935.1
2017-08-10T00:52:17.554Z,935.06
2017-08-10T00:52:45.805Z,935.07
2017-08-10T00:53:13.966Z,935.05
2017-08-10T00:53:42.021Z,935.08
2017-08-10T00:54:10.208Z,935.06
2017-08-10T00:54:38.374Z,935.07
2017-08-10T00:55:07.301Z,935.09
2017-08-10T00:55:35.376Z,935.09
2017-08-10T00:56:03.294Z,935.12
2017-08-10T00:56:31.970Z,935.1
2017-08-10T00:57:00.561Z,935.1
2017-08-10T00:57:28.527Z,935.09
2017-08-10T00:57:56.676Z,935.13
2017-08-10T00:58:24.829Z,935.13
2017-08-10T00:58:53.100Z,935.15
2017-08-10T00:59:21.164Z,935.14
2017-08-10T00:59:49.349Z,935.14
2017-08-10T01:00:17.397Z,935.14
2017-08-10T01:00:45.465Z,935.11
2017-08-10T01:01:13.534Z,935.1
2017-08-10T01:01:41.691Z,935.09
2017-08-10T01:02:09.860Z,935.11
2017-08-10T01:02:38.287Z,935.1
2017-08-10T01:03:06.820Z,935.13
2017-08-10T01:03:34.971Z,935.14
2017-08-10T01:04:03.131Z,935.12
2017-08-10T01:04:31.339Z,935.11
2017-08-10T01:04:59.401Z,935.15
2017-08-10T01:05:27.460Z,935.17
2017-08-10T01:05:55.511Z,935.16
2017-08-10T01:06:23.668Z,935.13
2017-08-10T01:07:06.253Z,935.15
2017-08-10T01:07:34.325Z,935.13
2017-08-10T01:08:02.416Z,935.13
2017-08-10T01:08:30.480Z,935.12
2017-08-10T01:08:58.627Z,935.15
2017-08-10T01:09:26.823Z,935.11
2017-08-10T01:09:54.961Z,935.12
2017-08-10T01:10:23.478Z,935.1
2017-08-10T01:10:52.150Z,935.12
2017-08-10T01:11:20.202Z,935.17
2017-08-10T01:11:48.444Z,935.14
2017-08-10T01:12:16.592Z,935.12
2017-08-10T01:12:44.693Z,935.15
2017-08-10T01:13:12.598Z,935.14
2017-08-10T01:13:40.761Z,935.13
2017-08-10T01:14:08.898Z,935.13
2017-08-10T01:14:37.011Z,935.11
2017-08-10T01:15:05.196Z,935.12
2017-08-10T01:15:33.345Z,935.11
2017-08-10T01:16:01.399Z,935.09
2017-08-10T01:16:29.455Z,935.13
2017-08-10T01:16:57.617Z,935.12
2017-08-10T01:17:26.278Z,935.14
2017-08-10T01:17:54.427Z,935.12
2017-08-10T01:18:23.012Z,935.12
2017-08-10T01:18:51.208Z,935.15
2017-08-10T01:19:19.312Z,935.17
2017-08-10T01:19:47.484Z,935.19
2017-08-10T01:20:15.550Z,935.17
2017-08-10T01:20:43.762Z,935.14
2017-08-10T01:21:11.933Z,935.19
2017-08-10T01:21:40.094Z,935.15
2017-08-10T01:22:08.263Z,935.17
2017-08-10T01:22:36.605Z,935.18
2017-08-10T01:23:04.701Z,935.14
2017-08-10T01:23:32.861Z,935.2
2017-08-10T01:24:01.018Z,935.17
2017-08-10T01:24:29.162Z,935.22
2017-08-10T01:24:57.688Z,935.2
2017-08-10T01:25:25.837Z,935.2
2017-08-10T01:25:53.898Z,935.23
2017-08-10T01:26:21.955Z,935.2
2017-08-10T01:26:50.017Z,935.19
2017-08-10T01:27:18.075Z,935.21
2017-08-10T01:27:46.701Z,935.2
2017-08-10T01:28:14.854Z,935.2
2017-08-10T01:28:42.935Z,935.17
2017-08-10T01:29:10.967Z,935.15
2017-08-10T01:29:39.572Z,935.17
2017-08-10T01:30:07.746Z,935.18
2017-08-10T01:30:35.809Z,935.18
2017-08-10T01:31:03.910Z,935.23
2017-08-10T01:31:31.997Z,935.25
2017-08-10T01:32:00.966Z,935.25
2017-08-10T01:32:29.566Z,935.32
2017-08-10T01:32:57.713Z,935.33
2017-08-10T01:33:25.765Z,935.32
2017-08-10T01:33:53.820Z,935.34
2017-08-10T01:34:21.981Z,935.34
2017-08-10T01:34:50.065Z,935.37
2017-08-10T01:35:18.121Z,935.36
2017-08-10T01:35:46.709Z,935.4
2017-08-10T01:36:14.797Z,935.39
2017-08-10T01:36:42.877Z,935.39
2017-08-10T01:37:11.015Z,935.41
2017-08-10T01:37:39.233Z,935.41
2017-08-10T01:38:07.292Z,935.39
2017-08-10T01:38:35.484Z,935.41
2017-08-10T01:39:03.662Z,935.44
2017-08-10T01:39:32.158Z,935.44
2017-08-10T01:40:00.218Z,935.4
2017-08-10T01:40:28.294Z,935.43
2017-08-10T01:40:56.924Z,935.45
2017-08-10T01:41:25.123Z,935.51
2017-08-10T01:41:53.685Z,935.48
2017-08-10T01:42:21.834Z,935.49
2017-08-10T01:42:49.893Z,935.51
2017-08-10T01:43:17.948Z,935.53
2017-08-10T01:43:46.008Z,935.5
2017-08-10T01:44:14.593Z,935.5
2017-08-10T01:44:42.745Z,935.48
2017-08-10T01:45:10.823Z,935.47
2017-08-10T01:45:38.878Z,935.45
2017-08-10T01:46:07.044Z,935.46
2017-08-10T01:46:35.190Z,935.45
2017-08-10T01:47:03.270Z,935.41
2017-08-10T01:47:31.313Z,935.45
2017-08-10T01:47:59.997Z,935.42
2017-08-10T01:48:28.055Z,935.38
2017-08-10T01:48:56.103Z,935.43
2017-08-10T01:49:24.488Z,935.42
2017-08-10T01:49:52.654Z,935.44
2017-08-10T01:50:20.805Z,935.42
2017-08-10T01:50:49.397Z,935.42
2017-08-10T01:51:17.460Z,935.44
2017-08-10T01:51:45.665Z,935.42
2017-08-10T01:52:13.636Z,935.45
2017-08-10T01:52:42.121Z,935.44
2017-08-10T01:53:10.177Z,935.47
2017-08-10T01:53:38.232Z,935.43
2017-08-10T01:54:06.907Z,935.45
2017-08-10T01:54:34.997Z,935.45
2017-08-10T01:55:03.146Z,935.42
2017-08-10T01:55:31.210Z,935.43
2017-08-10T01:55:59.265Z,935.44
2017-08-10T01:56:27.938Z,935.47
2017-08-10T01:56:55.997Z,935.42
2017-08-10T01:57:24.048Z,935.44
2017-08-10T01:57:52.115Z,935.45
2017-08-10T01:58:20.272Z,935.46
2017-08-10T01:58:48.412Z,935.45
2017-08-10T01:59:16.567Z,935.49
2017-08-10T01:59:44.839Z,935.45
2017-08-10T02:00:12.900Z,935.48
2017-08-10T02:00:41.394Z,935.45
2017-08-10T02:01:09.461Z,935.52
2017-08-10T02:01:37.638Z,935.51
2017-08-10T02:02:05.772Z,935.47
2017-08-10T02:02:34.075Z,935.51
2017-08-10T02:06:09.201Z,935.49
2017-08-10T02:06:37.195Z,935.66
2017-08-10T02:07:05.295Z,935.64
2017-08-10T02:07:33.385Z,935.6
2017-08-10T02:08:01.998Z,935.65
2017-08-10T02:08:30.080Z,935.64
2017-08-10T02:08:58.066Z,935.62
2017-08-10T02:09:26.155Z,935.63
2017-08-10T02:09:54.329Z,935.68
2017-08-10T02:10:22.430Z,935.66
2017-08-10T02:10:50.584Z,935.63
2017-08-10T02:11:18.729Z,935.69
2017-08-10T02:11:46.806Z,935.64
2017-08-10T02:12:14.855Z,935.69
2017-08-10T02:12:43.326Z,935.74
2017-08-10T02:13:11.462Z,935.74
2017-08-10T02:13:39.417Z,935.75
2017-08-10T02:14:07.563Z,935.72
2017-08-10T02:14:35.733Z,935.7
2017-08-10T02:15:03.834Z,935.74
2017-08-10T02:15:32.041Z,935.72
2017-08-10T02:16:00.147Z,935.74
2017-08-10T02:16:28.793Z,935.76
2017-08-10T02:16:56.951Z,935.74
2017-08-10T02:17:25.130Z,935.71
2017-08-10T02:17:53.286Z,935.71
2017-08-10T02:18:21.470Z,935.72
2017-08-10T02:18:49.770Z,935.71
2017-08-10T02:19:17.989Z,935.69
2017-08-10T02:19:46.164Z,935.7
2017-08-10T02:20:14.341Z,935.69
2017-08-10T02:20:42.467Z,935.67
2017-08-10T02:21:10.435Z,935.69
2017-08-10T02:21:38.593Z,935.72
2017-08-10T02:22:06.665Z,935.65
2017-08-10T02:22:34.819Z,935.71
2017-08-10T02:23:02.995Z,935.67
2017-08-10T02:23:31.589Z,935.68
2017-08-10T02:23:59.682Z,935.65
2017-08-10T02:24:27.741Z,935.67
2017-08-10T02:24:55.823Z,935.65
2017-08-10T02:25:24.350Z,935.64
2017-08-10T02:25:53.043Z,935.66
2017-08-10T02:26:21.125Z,935.62
2017-08-10T02:26:49.821Z,935.66
2017-08-10T02:27:17.885Z,935.64
2017-08-10T02:27:45.976Z,935.65
2017-08-10T02:28:14.131Z,935.68
2017-08-10T02:28:42.196Z,935.66
2017-08-10T02:29:10.105Z,935.68
2017-08-10T02:29:52.768Z,935.67
2017-08-10T02:30:20.939Z,935.72
2017-08-10T02:30:49.116Z,935.72
2017-08-10T02:31:17.025Z,935.72
2017-08-10T02:31:45.538Z,935.77
2017-08-10T02:32:13.603Z,935.76
2017-08-10T02:32:41.783Z,935.79
2017-08-10T02:33:10.037Z,935.76
2017-08-10T02:33:38.234Z,935.8
2017-08-10T02:34:06.404Z,935.81
2017-08-10T02:34:34.562Z,935.81
2017-08-10T02:35:03.112Z,935.78
2017-08-10T02:35:31.275Z,935.83
2017-08-10T02:35:59.791Z,935.81
2017-08-10T02:36:28.472Z,935.82
2017-08-10T02:36:56.987Z,935.81
2017-08-10T02:37:25.174Z,935.81
2017-08-10T02:37:53.350Z,935.79
2017-08-10T02:38:21.466Z,935.81
2017-08-10T02:38:49.538Z,935.83
2017-08-10T02:39:17.605Z,935.81
2017-08-10T02:39:46.251Z,935.76
2017-08-10T02:40:14.234Z,935.82
2017-08-10T02:40:42.234Z,935.8
2017-08-10T02:41:10.305Z,935.8
2017-08-10T02:41:38.470Z,935.83
2017-08-10T02:42:06.646Z,935.82
2017-08-10T02:42:35.331Z,935.83
2017-08-10T02:43:03.409Z,935.81
2017-08-10T02:43:31.382Z,935.85
2017-08-10T02:43:59.551Z,935.85
2017-08-10T02:44:27.646Z,935.87
2017-08-10T02:44:55.805Z,935.87
2017-08-10T02:45:23.941Z,935.89
2017-08-10T02:45:52.731Z,935.89
2017-08-10T02:46:20.940Z,935.91
2017-08-10T02:46:49.570Z,935.91
2017-08-10T02:47:17.634Z,935.92
2017-08-10T02:48:00.294Z,935.93
2017-08-10T02:48:28.460Z,935.91
2017-08-10T02:48:56.773Z,935.91
2017-08-10T02:49:24.854Z,935.91
2017-08-10T02:49:52.933Z,935.93
2017-08-10T02:50:21.325Z,935.92
2017-08-10T02:50:49.478Z,935.9
2017-08-10T02:51:17.453Z,935.91
2017-08-10T02:51:45.610Z,935.93
2017-08-10T02:52:13.678Z,935.9
2017-08-10T02:52:41.838Z,935.92
2017-08-10T02:53:09.912Z,935.92
2017-08-10T02:53:38.102Z,935.9
2017-08-10T02:54:06.119Z,935.92
2017-08-10T02:54:34.274Z,935.95
2017-08-10T02:55:02.363Z,935.93
2017-08-10T02:55:30.433Z,935.91
2017-08-10T02:55:58.629Z,935.96
2017-08-10T02:56:27.336Z,935.96
2017-08-10T02:56:55.409Z,935.94
2017-08-10T02:57:23.488Z,935.93
2017-08-10T02:57:51.687Z,935.92
2017-08-10T02:58:19.770Z,935.9
2017-08-10T02:58:47.946Z,935.92
2017-08-10T02:59:15.932Z,935.88
2017-08-10T02:59:44.098Z,935.91
2017-08-10T03:00:12.178Z,935.89
2017-08-10T03:00:40.345Z,935.84
2017-08-10T03:01:08.515Z,935.88
2017-08-10T03:01:36.410Z,935.89
2017-08-10T03:02:04.495Z,935.88
2017-08-10T03:02:33.013Z,935.88
2017-08-10T03:03:01.080Z,935.86
2017-08-10T03:03:29.071Z,935.88
2017-08-10T03:03:57.674Z,935.89
2017-08-10T03:04:25.655Z,935.9
2017-08-10T03:04:53.722Z,935.88
2017-08-10T03:05:21.876Z,935.9
2017-08-10T03:05:50.058Z,935.9
2017-08-10T03:06:18.375Z,935.9
2017-08-10T03:06:46.563Z,935.92
2017-08-10T03:07:14.632Z,935.9
2017-08-10T03:07:42.720Z,935.86
2017-08-10T03:08:10.808Z,935.88
2017-08-10T03:08:38.862Z,935.86
2017-08-10T03:09:06.930Z,935.88
2017-08-10T03:09:35.536Z,935.88
2017-08-10T03:10:03.508Z,935.88
2017-08-10T03:10:31.580Z,935.86
2017-08-10T03:10:59.676Z,935.84
2017-08-10T03:11:27.840Z,935.84
2017-08-10T03:11:55.826Z,935.84
2017-08-10T03:12:23.905Z,935.85
2017-08-10T03:12:52.072Z,935.86
2017-08-10T03:13:20.139Z,935.82
2017-08-10T03:13:48.850Z,935.85
2017-08-10T03:14:16.848Z,935.84
2017-08-10T03:14:45.018Z,935.85
2017-08-10T03:15:13.005Z,935.82
2017-08-10T03:15:41.078Z,935.84
2017-08-10T03:16:09.154Z,935.84
2017-08-10T03:16:37.319Z,935.81
2017-08-10T03:17:05.493Z,935.79
2017-08-10T03:17:33.583Z,935.81
2017-08-10T03:18:01.555Z,935.81
2017-08-10T03:18:30.154Z,935.79
2017-08-10T03:18:58.310Z,935.81
2017-08-10T03:19:26.478Z,935.82
2017-08-10T03:19:54.650Z,935.8
2017-08-10T03:20:22.814Z,935.82
2017-08-10T03:20:50.990Z,935.77
2017-08-10T03:21:19.154Z,935.8
2017-08-10T03:21:47.317Z,935.78
2017-08-10T03:22:15.486Z,935.78
2017-08-10T03:22:44.198Z,935.77
2017-08-10T03:23:12.178Z,935.75
2017-08-10T03:23:40.249Z,935.79
2017-08-10T03:24:08.429Z,935.77
2017-08-10T03:24:37.475Z,935.79
2017-08-10T03:25:05.644Z,935.81
2017-08-10T03:25:33.822Z,935.82
2017-08-10T03:26:01.897Z,935.83
2017-08-10T03:26:30.659Z,935.85
2017-08-10T03:26:58.729Z,935.85
2017-08-10T03:27:26.815Z,935.81
2017-08-10T03:27:54.907Z,935.83
2017-08-10T03:28:22.887Z,935.8
2017-08-10T03:28:51.046Z,935.82
2017-08-10T03:29:19.204Z,935.79
2017-08-10T03:29:47.376Z,935.77
2017-08-10T03:30:15.352Z,935.81
2017-08-10T03:30:43.434Z,935.77
2017-08-10T03:31:11.598Z,935.79
2017-08-10T03:31:39.757Z,935.79
2017-08-10T03:32:07.940Z,935.77
2017-08-10T03:32:36.009Z,935.79
2017-08-10T03:33:04.169Z,935.78
2017-08-10T03:33:32.151Z,935.75
2017-08-10T03:34:00.130Z,935.72
2017-08-10T03:34:28.104Z,935.69
2017-08-10T03:34:56.718Z,935.73
2017-08-10T03:35:24.807Z,935.72
2017-08-10T03:35:52.969Z,935.71
2017-08-10T03:36:21.078Z,935.7
2017-08-10T03:36:49.238Z,935.74
2017-08-10T03:37:17.325Z,935.76
2017-08-10T03:37:45.479Z,935.76
2017-08-10T03:38:13.559Z,935.75
2017-08-10T03:38:41.737Z,935.74
2017-08-10T03:39:09.920Z,935.78
2017-08-10T03:39:38.070Z,935.74
2017-08-10T03:40:06.139Z,935.72
2017-08-10T03:40:34.223Z,935.76
2017-08-10T03:41:02.378Z,935.76
2017-08-10T03:41:30.983Z,935.74
2017-08-10T03:41:59.149Z,935.75
2017-08-10T03:42:28.210Z,935.76
2017-08-10T03:42:56.358Z,935.72
2017-08-10T03:43:24.540Z,935.79
2017-08-10T03:43:52.607Z,935.81
2017-08-10T03:44:20.675Z,935.79
2017-08-10T03:44:48.791Z,935.79
2017-08-10T03:45:16.853Z,935.78
2017-08-10T03:45:45.039Z,935.81
2017-08-10T03:46:13.547Z,935.8
2017-08-10T03:46:41.728Z,935.81
2017-08-10T03:47:09.899Z,935.8
2017-08-10T03:47:38.061Z,935.79
2017-08-10T03:48:06.189Z,935.8
2017-08-10T03:48:34.375Z,935.78
2017-08-10T03:49:02.446Z,935.77
2017-08-10T03:49:31.057Z,935.78
2017-08-10T03:49:59.471Z,935.77
2017-08-10T03:50:27.628Z,935.79
2017-08-10T03:50:55.799Z,935.75
2017-08-10T03:51:23.962Z,935.77
2017-08-10T03:51:52.809Z,935.8
2017-08-10T03:52:20.694Z,935.73
2017-08-10T03:52:48.865Z,935.77
2017-08-10T03:53:16.938Z,935.79
2017-08-10T03:53:45.007Z,935.8
2017-08-10T03:54:13.188Z,935.78
2017-08-10T03:54:41.267Z,935.79
2017-08-10T03:55:09.420Z,935.78
2017-08-10T03:55:37.398Z,935.83
2017-08-10T03:56:19.959Z,935.8
2017-08-10T03:56:48.118Z,935.81
2017-08-10T03:57:16.543Z,935.84
2017-08-10T03:57:44.720Z,935.83
2017-08-10T03:58:12.978Z,935.85
2017-08-10T03:58:41.148Z,935.82
2017-08-10T03:59:09.319Z,935.83
2017-08-10T03:59:37.407Z,935.84
2017-08-10T04:00:05.487Z,935.82
2017-08-10T04:00:35.187Z,935.8
2017-08-10T04:01:03.787Z,935.81
2017-08-10T04:01:31.779Z,935.83
2017-08-10T04:01:59.843Z,935.81
2017-08-10T04:02:27.822Z,935.8
2017-08-10T04:02:55.986Z,935.8
2017-08-10T04:03:24.081Z,935.79
2017-08-10T04:03:52.151Z,935.78
2017-08-10T04:04:20.317Z,935.83
2017-08-10T04:04:48.509Z,935.78
2017-08-10T04:05:16.670Z,935.78
2017-08-10T04:05:44.816Z,935.78
2017-08-10T04:06:12.983Z,935.78
2017-08-10T04:06:41.154Z,935.8
2017-08-10T04:07:09.235Z,935.78
2017-08-10T04:07:37.401Z,935.78
2017-08-10T04:08:05.571Z,935.76
2017-08-10T04:08:33.638Z,935.73
2017-08-10T04:09:02.024Z,935.74
2017-08-10T04:09:30.359Z,935.75
2017-08-10T04:09:58.670Z,935.73
2017-08-10T04:10:26.880Z,935.72
2017-08-10T04:10:54.946Z,935.73
2017-08-10T04:11:23.017Z,935.73
2017-08-10T04:11:51.076Z,935.68
2017-08-10T04:12:19.231Z,935.74
2017-08-10T04:12:47.941Z,935.7
2017-08-10T04:13:16.011Z,935.7
2017-08-10T04:13:44.177Z,935.72
2017-08-10T04:14:12.238Z,935.73
2017-08-10T04:14:40.314Z,935.76
2017-08-10T04:15:08.295Z,935.77
2017-08-10T04:15:36.358Z,935.74
2017-08-10T04:16:04.517Z,935.72
2017-08-10T04:16:32.691Z,935.74
2017-08-10T04:17:01.103Z,935.71
2017-08-10T04:17:29.259Z,935.73
2017-08-10T04:17:57.340Z,935.74
2017-08-10T04:18:25.403Z,935.75
2017-08-10T04:18:53.579Z,935.73
2017-08-10T04:19:22.186Z,935.73
2017-08-10T04:19:50.252Z,935.75
2017-08-10T04:20:18.328Z,935.77
2017-08-10T04:20:47.020Z,935.74
2017-08-10T04:21:15.558Z,935.78
2017-08-10T04:21:43.525Z,935.74
2017-08-10T04:22:11.610Z,935.74
2017-08-10T04:22:39.769Z,935.76
2017-08-10T04:23:07.929Z,935.74
2017-08-10T04:23:36.118Z,935.74
2017-08-10T04:24:04.282Z,935.77
2017-08-10T04:24:32.438Z,935.75
2017-08-10T04:25:00.502Z,935.74
2017-08-10T04:25:28.579Z,935.77
2017-08-10T04:25:56.732Z,935.77
2017-08-10T04:26:24.888Z,935.73
2017-08-10T04:26:52.943Z,935.73
2017-08-10T04:27:20.911Z,935.71
2017-08-10T04:27:48.983Z,935.73
2017-08-10T04:28:17.161Z,935.73
2017-08-10T04:28:45.229Z,935.76
2017-08-10T04:29:13.400Z,935.76
2017-08-10T04:29:41.579Z,935.73
2017-08-10T04:30:09.648Z,935.74
2017-08-10T04:30:37.832Z,935.7
2017-08-10T04:31:05.943Z,935.72
2017-08-10T04:31:34.111Z,935.73
2017-08-10T04:32:02.269Z,935.71
2017-08-10T04:32:30.420Z,935.72
2017-08-10T04:32:58.505Z,935.73
2017-08-10T04:33:26.747Z,935.73
2017-08-10T04:33:54.862Z,935.73
2017-08-10T04:34:23.032Z,935.71
2017-08-10T04:34:51.199Z,935.68
2017-08-10T04:35:19.356Z,935.71
2017-08-10T04:35:47.427Z,935.73
2017-08-10T04:36:15.585Z,935.72
2017-08-10T04:36:43.744Z,935.68
2017-08-10T04:37:11.910Z,935.71
2017-08-10T04:37:39.982Z,935.75
2017-08-10T04:38:08.052Z,935.73
2017-08-10T04:38:36.202Z,935.76
2017-08-10T04:39:04.324Z,935.72
2017-08-10T04:39:32.482Z,935.78
2017-08-10T04:40:00.676Z,935.74
2017-08-10T04:40:28.752Z,935.73
2017-08-10T04:40:56.914Z,935.76
2017-08-10T04:41:25.082Z,935.76
2017-08-10T04:41:53.150Z,935.71
2017-08-10T04:42:21.322Z,935.7
2017-08-10T04:42:49.499Z,935.68
2017-08-10T04:43:17.579Z,935.7
2017-08-10T04:43:45.733Z,935.69
2017-08-10T04:44:13.817Z,935.68
2017-08-10T04:44:56.309Z,935.69
2017-08-10T04:45:24.483Z,935.68
2017-08-10T04:45:53.108Z,935.68
2017-08-10T04:46:21.289Z,935.68
2017-08-10T04:46:49.398Z,935.68
2017-08-10T04:47:17.580Z,935.66
2017-08-10T04:47:45.772Z,935.65
2017-08-10T04:48:13.934Z,935.66
2017-08-10T04:48:42.088Z,935.65
2017-08-10T04:49:10.060Z,935.63
2017-08-10T04:49:38.222Z,935.65
2017-08-10T04:50:06.284Z,935.61
2017-08-10T04:50:34.370Z,935.62
2017-08-10T04:51:02.534Z,935.58
2017-08-10T04:51:30.502Z,935.61
2017-08-10T04:51:58.684Z,935.61
2017-08-10T04:52:26.832Z,935.6
2017-08-10T04:52:55.033Z,935.61
2017-08-10T04:53:23.016Z,935.6
2017-08-10T04:53:51.181Z,935.63
2017-08-10T04:54:19.243Z,935.59
2017-08-10T04:54:47.391Z,935.6
2017-08-10T04:55:15.585Z,935.57
2017-08-10T04:55:43.747Z,935.59
2017-08-10T04:56:11.627Z,935.58
2017-08-10T04:56:39.693Z,935.56
2017-08-10T04:57:07.894Z,935.56
2017-08-10T04:57:35.967Z,935.53
2017-08-10T04:58:04.037Z,935.53
2017-08-10T04:58:32.195Z,935.52
2017-08-10T04:59:00.247Z,935.52
2017-08-10T04:59:28.316Z,935.49
2017-08-10T04:59:56.399Z,935.48
2017-08-10T05:00:25.009Z,935.49
2017-08-10T05:00:53.081Z,935.5
2017-08-10T05:01:22.017Z,935.48
2017-08-10T05:01:50.083Z,935.46
2017-08-10T05:02:18.068Z,935.51
2017-08-10T05:02:46.124Z,935.47
2017-08-10T05:03:14.277Z,935.45
2017-08-10T05:03:42.444Z,935.5
2017-08-10T05:04:10.606Z,935.46
2017-08-10T05:04:38.677Z,935.44
2017-08-10T05:05:06.852Z,935.42
2017-08-10T05:05:34.937Z,935.45
2017-08-10T05:06:03.013Z,935.46
2017-08-10T05:06:31.625Z,935.46
2017-08-10T05:06:59.783Z,935.43
2017-08-10T05:07:27.985Z,935.45
2017-08-10T05:07:56.144Z,935.41
2017-08-10T05:08:24.212Z,935.42
2017-08-10T05:08:52.396Z,935.43
2017-08-10T05:09:20.501Z,935.43
2017-08-10T05:09:48.610Z,935.43
2017-08-10T05:10:16.771Z,935.41
2017-08-10T05:10:44.838Z,935.41
2017-08-10T05:11:12.989Z,935.43
2017-08-10T05:11:41.065Z,935.4
2017-08-10T05:12:09.231Z,935.4
2017-08-10T05:12:37.297Z,935.38
2017-08-10T05:13:05.382Z,935.37
2017-08-10T05:13:33.548Z,935.4
2017-08-10T05:14:02.151Z,935.41
2017-08-10T05:14:30.313Z,935.39
2017-08-10T05:14:58.479Z,935.37
2017-08-10T05:15:27.086Z,935.37
2017-08-10T05:15:56.026Z,935.38
2017-08-10T05:16:24.191Z,935.34
2017-08-10T05:16:52.888Z,935.38
2017-08-10T05:17:20.852Z,935.36
2017-08-10T05:17:48.938Z,935.36
2017-08-10T05:18:17.118Z,935.31
2017-08-10T05:18:45.294Z,935.36
2017-08-10T05:19:13.284Z,935.31
2017-08-10T05:19:41.443Z,935.32
2017-08-10T05:20:09.605Z,935.33
2017-08-10T05:20:37.765Z,935.32
2017-08-10T05:21:05.755Z,935.33
2017-08-10T05:21:33.722Z,935.29
2017-08-10T05:22:01.879Z,935.27
2017-08-10T05:22:29.993Z,935.25
2017-08-10T05:22:58.126Z,935.28
2017-08-10T05:23:26.302Z,935.27
2017-08-10T05:23:54.463Z,935.24
2017-08-10T05:24:22.634Z,935.26
2017-08-10T05:24:50.789Z,935.25
2017-08-10T05:25:18.949Z,935.26
2017-08-10T05:25:47.030Z,935.26
2017-08-10T05:26:15.013Z,935.27
2017-08-10T05:26:43.198Z,935.25
2017-08-10T05:27:11.380Z,935.24
2017-08-10T05:27:39.642Z,935.21
2017-08-10T05:28:07.711Z,935.22
2017-08-10T05:28:35.927Z,935.22
2017-08-10T05:29:03.990Z,935.22
2017-08-10T05:29:31.959Z,935.23
2017-08-10T05:30:00.121Z,935.22
2017-08-10T05:30:28.188Z,935.18
2017-08-10T05:30:56.256Z,935.2
2017-08-10T05:31:24.328Z,935.2
2017-08-10T05:31:52.444Z,935.24
2017-08-10T05:32:20.600Z,935.21
2017-08-10T05:32:48.767Z,935.23
2017-08-10T05:33:16.915Z,935.24
2017-08-10T05:33:44.980Z,935.24
2017-08-10T05:34:13.143Z,935.25
2017-08-10T05:34:41.221Z,935.27
2017-08-10T05:35:09.290Z,935.22
2017-08-10T05:35:37.889Z,935.21
2017-08-10T05:36:05.863Z,935.22
2017-08-10T05:36:33.739Z,935.23
2017-08-10T05:37:01.838Z,935.23
2017-08-10T05:37:29.914Z,935.24
2017-08-10T05:37:58.070Z,935.22
2017-08-10T05:38:26.151Z,935.22
2017-08-10T05:38:54.303Z,935.22
2017-08-10T05:39:22.478Z,935.19
2017-08-10T05:39:50.359Z,935.24
2017-08-10T05:40:18.517Z,935.17
2017-08-10T05:40:46.675Z,935.19
2017-08-10T05:41:14.873Z,935.21
2017-08-10T05:41:43.030Z,935.18
2017-08-10T05:42:11.594Z,935.2
2017-08-10T05:42:39.905Z,935.16
2017-08-10T05:43:07.984Z,935.18
2017-08-10T05:43:36.137Z,935.17
2017-08-10T05:44:04.298Z,935.17
2017-08-10T05:44:32.394Z,935.18
2017-08-10T05:45:00.572Z,935.17
2017-08-10T05:45:28.639Z,935.16
2017-08-10T05:45:56.795Z,935.12
2017-08-10T05:46:24.871Z,935.16
2017-08-10T05:46:53.059Z,935.18
2017-08-10T05:47:21.144Z,935.19
2017-08-10T05:47:49.319Z,935.18
2017-08-10T05:48:17.294Z,935.2
2017-08-10T05:48:45.360Z,935.18
2017-08-10T05:49:13.519Z,935.24
2017-08-10T05:49:42.214Z,935.19
2017-08-10T05:50:10.271Z,935.2
2017-08-10T05:50:38.432Z,935.2
2017-08-10T05:51:06.604Z,935.21
2017-08-10T05:51:34.766Z,935.19
2017-08-10T05:52:02.975Z,935.2
2017-08-10T05:52:31.146Z,935.18
2017-08-10T05:52:59.310Z,935.19
2017-08-10T05:53:27.379Z,935.21
2017-08-10T05:53:55.457Z,935.22
2017-08-10T05:54:23.521Z,935.22
2017-08-10T05:54:51.918Z,935.21
2017-08-10T05:55:19.988Z,935.22
2017-08-10T05:55:48.057Z,935.2
2017-08-10T05:56:16.235Z,935.23
2017-08-10T05:56:44.398Z,935.23
2017-08-10T05:57:12.558Z,935.24
2017-08-10T05:57:40.635Z,935.25
2017-08-10T05:58:08.701Z,935.22